Terminal Aerodrome Forecast
Issued by NWS Wilmington, OH

Current Version | Previous Version | Text Only | Print | Product List | Glossary Off
Versions: 1 2 3 4 5 6 7 8 9 10 11 12 13 14 15 16 17 18 19 20 21

000
FTUS41 KILN 171200 AAA
TAFDAY
TAF AMD
KDAY 171232Z 1713/1812 34005KT 2SM BR SCT002
     FM171300 34006KT 4SM BR FEW004 BKN025
     FM171500 35008KT P6SM SKC
     FM172300 28003KT P6SM SCT250=

USA.gov is the U.S. government's official web portal to all federal, state and local government web resources and services.